Time;durP1;ratioP1;P1;durP2;ratioP2;P2;SDS_P1;SDS_P2;PMS_P1;PMS_P2;Temp;Humidity;BMP_temperature;BMP_pressure;BME280_temperature;BME280_humidity;BME280_pressure;Samples;Min_cycle;Max_cycle;Signal;HPM_P1;HPM_P2
2021/05/06 00:30:27;;;;;;;;;;;;;;;20.66;37.61;100671.16;2163178;40;115782;-58
2021/05/06 00:33:03;;;;;;;;;;;;;;;20.65;38.02;100663.03;2167576;40;116223;-56
2021/05/06 00:34:35;;;;;;;;;;;;;;;20.64;37.69;100665.03;2167117;40;115839;-56
2021/05/06 00:36:06;;;;;;;;;;;;;;;20.64;37.84;100664.19;2168225;40;116784;-59
2021/05/06 00:37:47;;;;;;;;;;;;;;;20.62;37.70;100666.50;2166748;40;115881;-57
2021/05/06 00:39:24;;;;;;;;;;;;;;;20.60;37.89;100652.75;2166328;40;115852;-56
2021/05/06 00:41:33;;;;;;;;;;;;;;;20.60;37.75;100657.53;2166903;40;115611;-58
2021/05/06 01:00:52;;;;;;;;;;;;;;;20.46;38.04;100632.31;2167392;40;114225;-55
2021/05/06 01:05:51;;;;;;;;;;;;;;;20.43;38.41;100630.16;2167733;40;113881;-59
2021/05/06 01:09:06;;;;;;;;;;;;;;;20.41;38.22;100624.84;2167324;40;113963;-58
2021/05/06 01:12:08;;;;;;;;;;;;;;;20.40;38.29;100625.16;2165618;40;115140;-59
2021/05/06 01:13:42;;;;;;;;;;;;;;;20.38;38.44;100617.06;2165621;40;117711;-58
2021/05/06 01:15:14;;;;;;;;;;;;;;;20.35;38.47;100620.47;2166431;40;115749;-59
2021/05/06 01:16:45;;;;;;;;;;;;;;;20.35;38.61;100622.50;2161312;40;114898;-56
2021/05/06 01:18:17;;;;;;;;;;;;;;;20.38;38.54;100619.88;2165948;40;114903;-55
2021/05/06 01:19:48;;;;;;;;;;;;;;;20.35;38.62;100611.25;2165330;40;114988;-57
2021/05/06 01:21:19;;;;;;;;;;;;;;;20.38;38.60;100610.63;2160106;40;115128;-57
2021/05/06 01:22:50;;;;;;;;;;;;;;;20.35;38.41;100606.47;2165519;40;114998;-60
2021/05/06 01:24:23;;;;;;;;;;;;;;;20.33;38.52;100607.94;2168615;40;114860;-58
2021/05/06 01:25:58;;;;;;;;;;;;;;;20.34;38.57;100610.44;2162991;40;115029;-61
2021/05/06 01:29:13;;;;;;;;;;;;;;;20.33;38.71;100610.75;2172534;40;115288;-60
2021/05/06 01:30:48;;;;;;;;;;;;;;;20.30;38.42;100601.00;2166233;40;115540;-54
2021/05/06 01:32:25;;;;;;;;;;;;;;;20.32;38.40;100595.03;2170707;40;114944;-57
2021/05/06 01:36:01;;;;;;;;;;;;;;;20.30;38.43;100589.75;2165952;40;115491;-60
2021/05/06 01:37:51;;;;;;;;;;;;;;;20.28;38.58;100589.22;2167520;40;115813;-60
2021/05/06 01:43:03;;;;;;;;;;;;;;;20.25;38.66;100577.78;2167656;40;114986;-57
2021/05/06 01:45:12;;;;;;;;;;;;;;;20.25;38.70;100577.78;2168187;40;115603;-59
2021/05/06 01:50:15;;;;;;;;;;;;;;;20.24;38.73;100574.16;2156197;40;115605;-55
2021/05/06 01:57:37;;;;;;;;;;;;;;;20.22;38.86;100561.56;2169319;40;115657;-58
2021/05/06 01:59:15;;;;;;;;;;;;;;;20.19;38.71;100573.44;2170229;40;114437;-55
2021/05/06 02:00:58;;;;;;;;;;;;;;;20.17;39.03;100570.13;2161272;40;114771;-58
2021/05/06 02:02:29;;;;;;;;;;;;;;;20.18;38.73;100566.16;2162179;40;113908;-61
2021/05/06 02:04:01;;;;;;;;;;;;;;;20.17;39.06;100564.53;2166209;40;114652;-57
2021/05/06 02:05:32;;;;;;;;;;;;;;;20.16;38.93;100569.28;2167650;40;114083;-60
2021/05/06 02:07:03;;;;;;;;;;;;;;;20.16;39.09;100560.88;2167228;40;113768;-61
2021/05/06 02:08:34;;;;;;;;;;;;;;;20.15;38.93;100558.38;2167635;40;114028;-56
2021/05/06 02:10:06;;;;;;;;;;;;;;;20.14;38.88;100568.78;2168111;40;113921;-57
2021/05/06 02:11:38;;;;;;;;;;;;;;;20.13;38.84;100561.50;2166061;40;113581;-55
2021/05/06 02:13:09;;;;;;;;;;;;;;;20.11;38.75;100557.34;2164436;40;113662;-57
2021/05/06 02:14:44;;;;;;;;;;;;;;;20.10;38.73;100556.53;2168059;40;113561;-59
2021/05/06 02:16:22;;;;;;;;;;;;;;;20.12;38.84;100559.03;2167941;40;114036;-59
2021/05/06 02:17:55;;;;;;;;;;;;;;;20.07;39.10;100561.94;2163432;40;113982;-57
2021/05/06 02:19:30;;;;;;;;;;;;;;;20.07;39.01;100547.91;2168209;40;113822;-57
2021/05/06 02:21:02;;;;;;;;;;;;;;;20.07;38.68;100553.53;2166379;40;114294;-59
2021/05/06 02:22:33;;;;;;;;;;;;;;;20.05;38.85;100553.81;2165907;40;114940;-55
2021/05/06 02:24:05;;;;;;;;;;;;;;;20.04;39.06;100549.34;2168018;40;115152;-59
2021/05/06 02:25:36;;;;;;;;;;;;;;;20.04;38.95;100546.56;2165283;40;115351;-58
2021/05/06 02:27:07;;;;;;;;;;;;;;;20.04;38.77;100534.50;2166629;40;115045;-59
2021/05/06 02:28:38;;;;;;;;;;;;;;;20.04;38.62;100540.13;2165113;40;114982;-58
2021/05/06 02:30:10;;;;;;;;;;;;;;;20.04;38.77;100542.91;2165113;40;115789;-60
2021/05/06 02:31:41;;;;;;;;;;;;;;;20.01;38.76;100541.59;2168501;40;115217;-59
2021/05/06 02:33:13;;;;;;;;;;;;;;;20.02;38.83;100537.63;2165343;40;115419;-56
2021/05/06 02:34:45;;;;;;;;;;;;;;;20.03;38.66;100539.31;2165155;40;114912;-58
2021/05/06 02:36:17;;;;;;;;;;;;;;;20.00;38.66;100528.69;2162786;40;115110;-58
2021/05/06 02:37:48;;;;;;;;;;;;;;;20.00;38.76;100534.31;2163498;40;115082;-59
2021/05/06 02:39:19;;;;;;;;;;;;;;;19.97;38.65;100534.94;2165210;40;114772;-58
2021/05/06 02:40:50;;;;;;;;;;;;;;;19.97;38.81;100535.78;2160823;40;115345;-56
2021/05/06 02:42:21;;;;;;;;;;;;;;;19.98;38.70;100531.00;2168051;40;115336;-58
2021/05/06 02:43:52;;;;;;;;;;;;;;;19.94;38.75;100529.97;2168193;40;115546;-60
2021/05/06 02:45:24;;;;;;;;;;;;;;;19.95;38.49;100526.00;2167514;40;115546;-59
2021/05/06 02:46:56;;;;;;;;;;;;;;;19.90;38.71;100520.50;2167658;40;115845;-57
2021/05/06 02:48:27;;;;;;;;;;;;;;;19.90;38.74;100518.53;2167579;40;115517;-60
2021/05/06 02:49:58;;;;;;;;;;;;;;;19.91;38.85;100520.22;2164606;40;115731;-56
2021/05/06 02:51:32;;;;;;;;;;;;;;;19.91;38.77;100505.34;2168045;40;116071;-60
2021/05/06 02:53:09;;;;;;;;;;;;;;;19.87;38.65;100501.53;2167822;40;114509;-56
2021/05/06 02:54:44;;;;;;;;;;;;;;;19.88;38.44;100514.41;2167312;40;115704;-59
2021/05/06 02:56:43;;;;;;;;;;;;;;;19.84;38.80;100508.59;2167410;40;116103;-57
2021/05/06 02:58:19;;;;;;;;;;;;;;;19.83;38.98;100501.34;2167208;40;115677;-58
2021/05/06 03:03:38;;;;;;;;;;;;;;;19.84;38.52;100490.94;2160754;40;115485;-56
2021/05/06 03:05:10;;;;;;;;;;;;;;;19.82;38.48;100494.06;2163348;40;115819;-56
2021/05/06 03:06:49;;;;;;;;;;;;;;;19.81;38.67;100491.56;2165032;40;114084;-61
2021/05/06 03:08:32;;;;;;;;;;;;;;;19.80;38.90;100501.13;2156419;40;113616;-60
2021/05/06 03:10:13;;;;;;;;;;;;;;;19.77;38.85;100496.97;2162651;40;113640;-60
2021/05/06 03:11:58;;;;;;;;;;;;;;;19.77;38.99;100487.72;2161996;40;114383;-57
2021/05/06 03:22:46;;;;;;;;;;;;;;;19.72;39.34;100479.44;2162137;40;113651;-58
2021/05/06 03:24:20;;;;;;;;;;;;;;;19.71;39.20;100475.00;2165696;40;113905;-59
2021/05/06 03:25:51;;;;;;;;;;;;;;;19.74;39.13;100471.56;2155879;40;113795;-56
2021/05/06 03:27:27;;;;;;;;;;;;;;;19.74;39.36;100475.19;2160111;40;114311;-61
2021/05/06 03:29:06;;;;;;;;;;;;;;;19.71;39.18;100478.63;2164945;40;113938;-58
2021/05/06 03:32:29;;;;;;;;;;;;;;;19.68;39.57;100470.84;2163442;40;115147;-58
2021/05/06 03:47:12;;;;;;;;;;;;;;;19.62;39.51;100463.69;2160909;40;114939;-59
2021/05/06 04:17:58;;;;;;;;;;;;;;;19.51;39.60;100420.22;2168282;40;115809;-58
2021/05/06 04:26:24;;;;;;;;;;;;;;;19.48;39.51;100423.66;2166152;40;113840;-58
2021/05/06 04:28:16;;;;;;;;;;;;;;;19.47;39.63;100431.22;2167941;40;113605;-57
2021/05/06 04:36:59;;;;;;;;;;;;;;;19.68;39.67;100426.00;2168099;40;113952;-58
2021/05/06 04:38:30;;;;;;;;;;;;;;;19.69;39.83;100424.84;2168318;40;114322;-57
2021/05/06 04:42:05;;;;;;;;;;;;;;;19.74;40.11;100423.91;2168319;40;113952;-59
2021/05/06 04:55:39;;;;;;;;;;;;;;;20.10;40.17;100418.25;2167826;40;113905;-59
2021/05/06 05:04:29;;;;;;;;;;;;;;;20.33;39.66;100414.34;2166632;40;114880;-56
2021/05/06 05:06:00;;;;;;;;;;;;;;;20.37;40.10;100418.16;2167663;40;114922;-57
2021/05/06 05:07:38;;;;;;;;;;;;;;;20.42;40.08;100423.63;2167322;40;115336;-58
2021/05/06 05:09:32;;;;;;;;;;;;;;;20.45;40.20;100416.53;2169045;40;114052;-54
2021/05/06 05:12:50;;;;;;;;;;;;;;;20.54;39.52;100415.44;2165609;40;116189;-56
2021/05/06 05:18:22;;;;;;;;;;;;;;;20.67;39.64;100394.06;2167363;40;115649;-59
2021/05/06 05:20:14;;;;;;;;;;;;;;;20.72;39.52;100405.13;2167552;40;116226;-56
2021/05/06 05:23:38;;;;;;;;;;;;;;;20.78;39.20;100396.25;2163971;40;115621;-58
2021/05/06 05:25:12;;;;;;;;;;;;;;;20.81;38.99;100398.41;2166673;40;115718;-60
2021/05/06 05:26:51;;;;;;;;;;;;;;;20.85;38.99;100392.97;2164360;40;114634;-61
2021/05/06 05:28:22;;;;;;;;;;;;;;;20.90;38.87;100397.63;2161972;40;115766;-58
2021/05/06 05:29:53;;;;;;;;;;;;;;;20.92;39.04;100392.50;2166737;40;115849;-59
2021/05/06 05:31:25;;;;;;;;;;;;;;;20.96;38.49;100396.31;2167147;40;115619;-57
2021/05/06 05:32:56;;;;;;;;;;;;;;;21.00;38.89;100400.13;2175022;40;115713;-59
2021/05/06 05:34:39;;;;;;;;;;;;;;;21.02;38.44;100390.25;2166043;40;113809;-56
2021/05/06 05:36:16;;;;;;;;;;;;;;;21.06;39.15;100385.63;2160810;40;113790;-56
2021/05/06 05:37:52;;;;;;;;;;;;;;;21.10;39.03;100383.81;2159389;40;113733;-58
2021/05/06 05:54:46;;;;;;;;;;;;;;;21.40;38.16;100370.84;2165156;40;113616;-59
2021/05/06 05:56:17;;;;;;;;;;;;;;;21.45;38.06;100378.31;2164944;40;114188;-60
2021/05/06 05:57:48;;;;;;;;;;;;;;;21.47;37.87;100379.66;2170556;40;114082;-57
2021/05/06 05:59:20;;;;;;;;;;;;;;;21.49;37.86;100366.06;2162589;40;115035;-56
2021/05/06 06:00:53;;;;;;;;;;;;;;;21.51;37.95;100366.59;2164109;40;115175;-58
2021/05/06 06:02:24;;;;;;;;;;;;;;;21.54;38.15;100371.53;2165676;40;114965;-57
2021/05/06 06:03:56;;;;;;;;;;;;;;;21.58;38.14;100378.16;2167054;40;114994;-60
2021/05/06 06:05:27;;;;;;;;;;;;;;;21.59;37.63;100377.00;2167049;40;115223;-56
2021/05/06 06:06:58;;;;;;;;;;;;;;;21.62;37.57;100373.53;2170629;40;114605;-58
2021/05/06 06:08:31;;;;;;;;;;;;;;;21.64;37.73;100374.03;2169025;40;115505;-59
2021/05/06 06:10:03;;;;;;;;;;;;;;;21.66;37.90;100370.91;2163102;40;114936;-58
2021/05/06 06:11:36;;;;;;;;;;;;;;;21.70;37.85;100378.34;2163719;40;115337;-58
2021/05/06 06:13:07;;;;;;;;;;;;;;;21.75;37.55;100377.34;2166233;40;114708;-56
2021/05/06 06:14:55;;;;;;;;;;;;;;;21.78;37.45;100373.03;2162768;40;115349;-55
2021/05/06 06:16:29;;;;;;;;;;;;;;;21.80;37.17;100371.56;2165910;40;114893;-58
2021/05/06 06:18:11;;;;;;;;;;;;;;;21.84;37.38;100368.91;2167037;40;114468;-58
2021/05/06 06:19:48;;;;;;;;;;;;;;;21.81;36.94;100372.38;2170597;40;115282;-57
2021/05/06 06:21:26;;;;;;;;;;;;;;;21.82;36.98;100376.84;2165853;40;116490;-57
2021/05/06 06:22:57;;;;;;;;;;;;;;;21.83;36.91;100375.69;2165645;40;116259;-57
2021/05/06 06:24:29;;;;;;;;;;;;;;;21.84;36.54;100377.34;2163301;40;116040;-57
2021/05/06 06:26:00;;;;;;;;;;;;;;;21.84;36.76;100378.19;2166797;40;116006;-58
2021/05/06 06:27:31;;;;;;;;;;;;;;;21.86;36.47;100378.66;2167226;40;116060;-58
2021/05/06 06:29:08;;;;;;;;;;;;;;;21.86;36.48;100380.63;2167796;40;116592;-55
2021/05/06 06:30:41;;;;;;;;;;;;;;;21.85;36.44;100381.81;2167711;40;115076;-58
2021/05/06 06:32:15;;;;;;;;;;;;;;;21.86;36.60;100383.44;2168119;40;115487;-58
2021/05/06 06:33:47;;;;;;;;;;;;;;;21.86;36.56;100377.81;2167558;40;115746;-55
2021/05/06 06:35:18;;;;;;;;;;;;;;;21.87;36.19;100382.31;2167292;40;116476;-55
2021/05/06 06:36:49;;;;;;;;;;;;;;;21.87;36.35;100376.69;2167505;40;115737;-54
2021/05/06 06:38:20;;;;;;;;;;;;;;;21.87;36.13;100382.31;2168141;40;114772;-55
2021/05/06 06:39:51;;;;;;;;;;;;;;;21.87;36.02;100387.94;2168743;40;116160;-58
2021/05/06 06:41:23;;;;;;;;;;;;;;;21.87;36.24;100387.94;2170814;40;115776;-54
2021/05/06 06:42:54;;;;;;;;;;;;;;;21.86;36.06;100387.09;2168534;40;113875;-58
2021/05/06 06:44:29;;;;;;;;;;;;;;;21.86;36.19;100394.69;2168542;40;114508;-58
2021/05/06 06:46:01;;;;;;;;;;;;;;;21.85;36.00;100388.25;2168201;40;113704;-56
2021/05/06 06:47:32;;;;;;;;;;;;;;;21.85;35.89;100390.25;2168465;40;114003;-59
2021/05/06 06:49:03;;;;;;;;;;;;;;;21.84;36.10;100385.78;2168141;40;113646;-56
2021/05/06 06:50:35;;;;;;;;;;;;;;;21.75;34.84;100388.59;2167473;40;114147;-55
2021/05/06 06:52:08;;;;;;;;;;;;;;;21.34;32.23;100394.66;2168456;40;113849;-58
2021/05/06 06:53:39;;;;;;;;;;;;;;;21.24;32.95;100383.72;2168770;40;113781;-58
2021/05/06 06:55:10;;;;;;;;;;;;;;;21.39;34.08;100388.91;2168339;40;113766;-58
2021/05/06 06:56:42;;;;;;;;;;;;;;;21.44;34.43;100382.28;2167502;40;113957;-56
2021/05/06 06:58:13;;;;;;;;;;;;;;;21.47;34.00;100382.47;2167947;40;114231;-57
2021/05/06 06:59:44;;;;;;;;;;;;;;;21.48;34.24;100383.28;2167495;40;113723;-55
2021/05/06 07:01:16;;;;;;;;;;;;;;;21.48;33.93;100383.28;2168328;40;114039;-57
2021/05/06 07:02:47;;;;;;;;;;;;;;;21.46;33.96;100380.78;2169299;40;114201;-55
2021/05/06 07:04:19;;;;;;;;;;;;;;;21.46;34.30;100385.59;2166514;40;114814;-54
2021/05/06 07:05:50;;;;;;;;;;;;;;;21.45;34.00;100379.13;2167843;40;115009;-58
2021/05/06 07:07:22;;;;;;;;;;;;;;;21.43;34.15;100375.84;2165954;40;115765;-56
2021/05/06 07:08:53;;;;;;;;;;;;;;;21.44;33.93;100373.84;2168093;40;115186;-55
2021/05/06 07:10:25;;;;;;;;;;;;;;;21.44;34.08;100374.66;2167107;40;115055;-55
2021/05/06 07:11:56;;;;;;;;;;;;;;;21.43;33.88;100384.28;2165921;40;115178;-55
2021/05/06 07:13:27;;;;;;;;;;;;;;;21.42;34.44;100379.81;2168238;40;115079;-56
2021/05/06 07:14:59;;;;;;;;;;;;;;;21.38;34.77;100370.38;2165880;40;115220;-58
2021/05/06 07:16:30;;;;;;;;;;;;;;;21.43;34.73;100373.03;2167703;40;115142;-57
2021/05/06 07:18:07;;;;;;;;;;;;;;;21.43;35.07;100375.84;2164303;40;114960;-57
2021/05/06 07:19:39;;;;;;;;;;;;;;;21.37;34.76;100374.34;2167316;40;114439;-55
2021/05/06 07:21:10;;;;;;;;;;;;;;;21.38;34.61;100375.16;2167312;40;114422;-55
2021/05/06 07:22:41;;;;;;;;;;;;;;;21.37;34.39;100371.53;2168141;40;115192;-56
2021/05/06 07:24:15;;;;;;;;;;;;;;;21.35;34.76;100381.44;2170888;40;115329;-55
2021/05/06 07:25:53;;;;;;;;;;;;;;;21.34;34.17;100374.16;2168549;40;115690;-57
2021/05/06 07:27:29;;;;;;;;;;;;;;;21.34;34.09;100374.16;2167022;40;115526;-54
2021/05/06 07:29:09;;;;;;;;;;;;;;;21.32;34.18;100368.03;2165794;40;115501;-57
2021/05/06 07:30:45;;;;;;;;;;;;;;;21.23;34.22;100366.03;2166156;40;115823;-56
2021/05/06 07:32:17;;;;;;;;;;;;;;;20.99;32.81;100381.63;2168023;40;115552;-60
2021/05/06 07:33:50;;;;;;;;;;;;;;;20.83;32.19;100364.41;2168271;40;115478;-57
2021/05/06 07:35:25;;;;;;;;;;;;;;;20.67;31.65;100372.41;2166882;40;114590;-60
2021/05/06 07:36:58;;;;;;;;;;;;;;;20.65;32.78;100371.94;2168002;40;115486;-59
2021/05/06 07:38:31;;;;;;;;;;;;;;;20.72;33.75;100366.66;2167612;40;115485;-57
2021/05/06 07:40:05;;;;;;;;;;;;;;;20.81;33.77;100370.34;2168333;40;115697;-56
2021/05/06 07:41:38;;;;;;;;;;;;;;;20.87;33.58;100373.84;2164636;40;114847;-56
2021/05/06 07:43:12;;;;;;;;;;;;;;;20.91;33.74;100359.97;2167133;40;115902;-58
2021/05/06 07:44:46;;;;;;;;;;;;;;;20.91;33.95;100365.59;2167627;40;115513;-55
2021/05/06 07:46:20;;;;;;;;;;;;;;;20.89;34.02;100363.13;2165841;40;115644;-56
2021/05/06 07:47:56;;;;;;;;;;;;;;;20.84;34.14;100361.28;2167649;40;115520;-54
2021/05/06 07:49:31;;;;;;;;;;;;;;;20.83;34.34;100361.59;2167424;40;114008;-58
2021/05/06 07:51:05;;;;;;;;;;;;;;;20.86;34.35;100364.56;2164759;40;114408;-58
2021/05/06 07:52:43;;;;;;;;;;;;;;;20.89;34.44;100365.09;2166676;40;114585;-56
2021/05/06 07:54:17;;;;;;;;;;;;;;;20.88;34.36;100357.81;2167819;40;113920;-57
2021/05/06 07:55:55;;;;;;;;;;;;;;;20.87;34.59;100348.56;2166952;40;114077;-56
2021/05/06 07:57:27;;;;;;;;;;;;;;;20.86;34.52;100353.34;2166857;40;114089;-58
2021/05/06 07:58:58;;;;;;;;;;;;;;;20.88;34.80;100361.47;2166134;40;113913;-58
2021/05/06 08:00:30;;;;;;;;;;;;;;;20.87;34.55;100362.59;2167125;40;113940;-55
2021/05/06 08:02:03;;;;;;;;;;;;;;;20.85;34.43;100359.28;2160868;40;113774;-55
2021/05/06 08:03:35;;;;;;;;;;;;;;;20.86;34.56;100358.97;2162742;40;113897;-57
2021/05/06 08:05:07;;;;;;;;;;;;;;;20.88;34.57;100355.84;2166804;40;114056;-56
2021/05/06 08:06:38;;;;;;;;;;;;;;;20.85;34.86;100348.03;2168233;40;114052;-58
2021/05/06 08:08:10;;;;;;;;;;;;;;;20.84;34.59;100352.84;2166002;40;114236;-55
2021/05/06 08:09:41;;;;;;;;;;;;;;;20.84;34.65;100350.06;2164605;40;113787;-56
2021/05/06 08:11:12;;;;;;;;;;;;;;;20.85;34.80;100356.47;2162872;40;115140;-56
2021/05/06 08:12:44;;;;;;;;;;;;;;;20.83;34.89;100342.78;2163075;40;115130;-58
2021/05/06 08:14:15;;;;;;;;;;;;;;;20.81;35.16;100350.69;2166197;40;114824;-56
2021/05/06 08:15:48;;;;;;;;;;;;;;;20.81;34.98;100350.69;2166372;40;115800;-57
2021/05/06 08:17:20;;;;;;;;;;;;;;;20.79;35.46;100355.81;2166605;40;114930;-57
2021/05/06 08:18:52;;;;;;;;;;;;;;;20.80;35.21;100351.81;2167499;40;114936;-55
2021/05/06 08:20:23;;;;;;;;;;;;;;;20.79;35.59;100343.75;2164565;40;114916;-55
2021/05/06 08:21:54;;;;;;;;;;;;;;;20.78;35.21;100353.31;2162956;40;115932;-57
2021/05/06 08:23:26;;;;;;;;;;;;;;;20.75;35.44;100352.00;2167198;40;114845;-57
2021/05/06 08:24:57;;;;;;;;;;;;;;;20.74;35.27;100350.34;2162776;40;114884;-56
2021/05/06 08:26:28;;;;;;;;;;;;;;;20.73;35.35;100350.66;2164932;40;115317;-58
2021/05/06 08:27:59;;;;;;;;;;;;;;;20.71;35.50;100342.56;2162881;40;114980;-56
2021/05/06 08:29:31;;;;;;;;;;;;;;;20.70;35.21;100351.31;2162861;40;115109;-57
2021/05/06 08:31:02;;;;;;;;;;;;;;;20.70;35.25;100346.53;2165970;40;115092;-55
2021/05/06 08:32:33;;;;;;;;;;;;;;;20.72;35.33;100344.22;2166703;40;115778;-54
2021/05/06 08:34:04;;;;;;;;;;;;;;;20.75;35.23;100345.56;2167260;40;115772;-56
2021/05/06 08:35:36;;;;;;;;;;;;;;;20.76;35.40;100344.38;2163856;40;116363;-56
2021/05/06 08:37:07;;;;;;;;;;;;;;;20.78;34.97;100342.91;2161348;40;115592;-59
2021/05/06 08:38:38;;;;;;;;;;;;;;;20.78;35.21;100348.53;2165374;40;115676;-60
2021/05/06 08:40:10;;;;;;;;;;;;;;;20.80;35.11;100334.19;2168883;40;115893;-56
2021/05/06 08:41:42;;;;;;;;;;;;;;;20.83;35.47;100327.91;2164227;40;117232;-56
2021/05/06 08:43:14;;;;;;;;;;;;;;;20.85;35.34;100331.19;2164141;40;116189;-55
2021/05/06 08:44:45;;;;;;;;;;;;;;;20.86;35.28;100328.06;2166285;40;115753;-56
2021/05/06 08:46:17;;;;;;;;;;;;;;;20.90;35.27;100327.41;2165094;40;116183;-55
2021/05/06 08:48:04;;;;;;;;;;;;;;;20.96;34.90;100326.13;2166089;40;115457;-55
2021/05/06 08:49:37;;;;;;;;;;;;;;;20.99;35.10;100322.66;2167340;40;115670;-56
2021/05/06 08:51:08;;;;;;;;;;;;;;;21.03;35.12;100323.69;2167771;40;115698;-55
2021/05/06 08:52:40;;;;;;;;;;;;;;;21.07;34.92;100324.66;2165103;40;115669;-58
2021/05/06 08:54:11;;;;;;;;;;;;;;;21.10;34.99;100321.19;2176319;40;114119;-58
2021/05/06 08:55:43;;;;;;;;;;;;;;;21.14;35.33;100319.41;2164998;40;113783;-58
2021/05/06 08:57:21;;;;;;;;;;;;;;;21.18;35.08;100324.06;2169627;40;113852;-58
2021/05/06 08:58:54;;;;;;;;;;;;;;;21.23;34.83;100329.50;2166626;40;114128;-57
2021/05/06 09:00:25;;;;;;;;;;;;;;;21.28;35.12;100322.91;2167925;40;114831;-58
2021/05/06 09:01:57;;;;;;;;;;;;;;;21.32;34.78;100318.28;2167695;40;113767;-58
2021/05/06 09:03:28;;;;;;;;;;;;;;;21.36;34.67;100321.25;2167967;40;114368;-59
2021/05/06 09:05:06;;;;;;;;;;;;;;;21.40;35.02;100317.47;2168358;40;113849;-58
2021/05/06 09:06:50;;;;;;;;;;;;;;;21.44;34.54;100326.06;2167541;40;114084;-59
2021/05/06 09:08:37;;;;;;;;;;;;;;;21.49;34.50;100320.28;2167687;40;114104;-57
2021/05/06 09:10:08;;;;;;;;;;;;;;;21.54;34.73;100320.09;2168213;40;114105;-59
2021/05/06 09:11:42;;;;;;;;;;;;;;;21.59;34.73;100317.13;2173487;40;113923;-58
2021/05/06 09:13:27;;;;;;;;;;;;;;;21.63;34.72;100309.69;2169672;40;113870;-57
2021/05/06 09:15:06;;;;;;;;;;;;;;;21.67;34.73;100305.88;2162816;40;113759;-57
2021/05/06 09:16:38;;;;;;;;;;;;;;;21.72;34.74;100304.88;2165950;40;113947;-59
2021/05/06 09:18:31;;;;;;;;;;;;;;;21.76;34.66;100311.50;2164545;40;115183;-58
2021/05/06 09:20:05;;;;;;;;;;;;;;;21.79;34.40;100310.84;2167057;40;116532;-59
2021/05/06 09:21:37;;;;;;;;;;;;;;;21.82;34.15;100307.38;2167729;40;114972;-57
2021/05/06 09:23:08;;;;;;;;;;;;;;;21.84;34.21;100307.88;2167960;40;114884;-58
2021/05/06 09:24:39;;;;;;;;;;;;;;;21.85;34.46;100305.88;2167746;40;114549;-54
2021/05/06 09:26:11;;;;;;;;;;;;;;;21.87;34.17;100304.38;2166653;40;115022;-56
2021/05/06 09:27:42;;;;;;;;;;;;;;;21.90;34.05;100308.50;2165517;40;114878;-60
2021/05/06 09:29:28;;;;;;;;;;;;;;;21.93;34.07;100311.53;2165410;40;114815;-57
2021/05/06 09:31:01;;;;;;;;;;;;;;;21.94;33.90;100306.72;2164597;40;115280;-57
2021/05/06 09:32:35;;;;;;;;;;;;;;;21.95;34.34;100305.56;2169795;40;115209;-56
2021/05/06 09:34:11;;;;;;;;;;;;;;;21.98;34.30;100307.72;2167282;40;114873;-58
2021/05/06 09:35:45;;;;;;;;;;;;;;;21.99;34.17;100304.53;2167360;40;114703;-58
2021/05/06 09:37:23;;;;;;;;;;;;;;;22.01;34.38;100305.06;2167873;40;114881;-58
2021/05/06 09:38:56;;;;;;;;;;;;;;;22.02;34.89;100308.69;2166112;40;114922;-54
2021/05/06 09:40:27;;;;;;;;;;;;;;;22.03;35.00;100302.72;2161071;40;115646;-55
2021/05/06 09:42:06;;;;;;;;;;;;;;;22.04;34.55;100306.34;2161366;40;115022;-58
2021/05/06 09:43:40;;;;;;;;;;;;;;;22.03;34.53;100305.53;2166142;40;115690;-55
2021/05/06 09:45:31;;;;;;;;;;;;;;;22.04;34.45;100300.72;2162438;40;117559;-57
2021/05/06 09:47:13;;;;;;;;;;;;;;;22.04;34.51;100304.38;2167766;40;115008;-56
2021/05/06 09:48:45;;;;;;;;;;;;;;;22.03;34.49;100302.72;2161266;40;115655;-58
2021/05/06 09:50:24;;;;;;;;;;;;;;;22.04;34.50;100295.09;2165910;40;115740;-55
2021/05/06 09:52:00;;;;;;;;;;;;;;;22.03;34.25;100302.72;2164569;40;115645;-55
2021/05/06 09:53:32;;;;;;;;;;;;;;;22.03;34.52;100307.53;2163847;40;114458;-55
2021/05/06 09:55:04;;;;;;;;;;;;;;;22.02;34.28;100301.09;2166432;40;115708;-57
2021/05/06 09:56:36;;;;;;;;;;;;;;;22.02;34.50;100311.50;2173018;40;115733;-56
2021/05/06 09:58:14;;;;;;;;;;;;;;;22.01;34.16;100313.50;2170141;40;115938;-59
2021/05/06 09:59:45;;;;;;;;;;;;;;;22.02;34.18;100305.88;2164961;40;116163;-55
2021/05/06 10:01:16;;;;;;;;;;;;;;;22.00;34.74;100305.38;2170490;40;115674;-56
2021/05/06 10:02:47;;;;;;;;;;;;;;;22.00;34.33;100303.41;2167785;40;113854;-58
2021/05/06 10:04:40;;;;;;;;;;;;;;;21.99;34.16;100306.53;2167692;40;114769;-58
2021/05/06 10:06:16;;;;;;;;;;;;;;;22.00;34.24;100303.41;2166029;40;113934;-54
2021/05/06 10:07:53;;;;;;;;;;;;;;;21.99;34.34;100298.91;2165341;40;114146;-57
2021/05/06 10:09:24;;;;;;;;;;;;;;;22.01;34.40;100293.81;2167873;40;113789;-57
2021/05/06 10:10:56;;;;;;;;;;;;;;;22.02;34.21;100297.44;2163424;40;113778;-57
2021/05/06 10:12:28;;;;;;;;;;;;;;;22.01;33.99;100292.97;2166612;40;114021;-56
2021/05/06 10:13:59;;;;;;;;;;;;;;;22.00;34.40;100294.13;2168407;40;113826;-57
2021/05/06 10:15:31;;;;;;;;;;;;;;;21.99;34.13;100296.09;2168547;40;114115;-57
2021/05/06 10:17:02;;;;;;;;;;;;;;;21.98;34.16;100302.91;2168601;40;114388;-56
2021/05/06 10:18:34;;;;;;;;;;;;;;;21.97;34.00;100295.63;2168612;40;113686;-58
2021/05/06 10:20:07;;;;;;;;;;;;;;;21.96;34.41;100295.97;2167834;40;113933;-58
2021/05/06 10:21:38;;;;;;;;;;;;;;;21.96;34.55;100298.78;2163006;40;113989;-55
2021/05/06 10:23:13;;;;;;;;;;;;;;;21.93;34.49;100297.47;2164206;40;114070;-55
2021/05/06 10:24:46;;;;;;;;;;;;;;;21.93;34.12;100302.25;2166473;40;115203;-58
2021/05/06 10:26:18;;;;;;;;;;;;;;;21.92;34.22;100317.44;2167140;40;115010;-56
2021/05/06 10:27:50;;;;;;;;;;;;;;;21.91;34.29;100324.22;2165293;40;115132;-57
2021/05/06 10:29:23;;;;;;;;;;;;;;;21.91;34.59;100324.22;2165283;40;114167;-54
2021/05/06 10:30:54;;;;;;;;;;;;;;;21.88;34.29;100317.28;2168155;40;115694;-59
2021/05/06 10:32:29;;;;;;;;;;;;;;;21.89;34.58;100321.75;2168220;40;115010;-61
2021/05/06 10:34:00;;;;;;;;;;;;;;;21.89;35.03;100327.38;2168282;40;114890;-58
2021/05/06 10:35:32;;;;;;;;;;;;;;;21.87;34.80;100329.69;2168195;40;114782;-55
2021/05/06 10:37:04;;;;;;;;;;;;;;;21.86;34.45;100325.22;2168495;40;114902;-58
2021/05/06 10:38:38;;;;;;;;;;;;;;;21.77;34.37;100332.00;2167635;40;114988;-56
2021/05/06 10:40:30;;;;;;;;;;;;;;;21.81;34.20;100335.81;2168124;40;115284;-55
2021/05/06 10:42:28;;;;;;;;;;;;;;;21.78;33.87;100334.50;2167648;40;114830;-57
2021/05/06 10:44:00;;;;;;;;;;;;;;;21.77;34.05;100348.88;2164482;40;114988;-55
2021/05/06 10:45:32;;;;;;;;;;;;;;;21.74;33.80;100341.94;2176124;40;114993;-54
2021/05/06 10:47:04;;;;;;;;;;;;;;;21.73;33.79;100340.28;2167268;40;115444;-57
2021/05/06 10:48:53;;;;;;;;;;;;;;;21.71;33.30;100339.81;2164159;40;115612;-57
2021/05/06 10:50:30;;;;;;;;;;;;;;;21.70;33.70;100332.53;2165082;40;115480;-54
2021/05/06 10:52:03;;;;;;;;;;;;;;;21.67;33.35;100336.81;2167191;40;115724;-56
2021/05/06 10:53:34;;;;;;;;;;;;;;;21.65;33.31;100335.50;2167301;40;115531;-55
2021/05/06 10:55:08;;;;;;;;;;;;;;;21.63;33.54;100330.19;2167493;40;115629;-56
2021/05/06 10:56:40;;;;;;;;;;;;;;;21.60;33.31;100335.66;2166667;40;115755;-56
2021/05/06 10:58:27;;;;;;;;;;;;;;;21.59;33.56;100329.22;2167326;40;116036;-58
2021/05/06 10:59:58;;;;;;;;;;;;;;;21.56;33.26;100335.50;2167809;40;114527;-57
2021/05/06 11:01:39;;;;;;;;;;;;;;;21.53;33.58;100336.13;2165902;40;115784;-58
2021/05/06 11:03:24;;;;;;;;;;;;;;;21.51;33.62;100329.22;2167380;40;115604;-56
2021/05/06 11:05:08;;;;;;;;;;;;;;;21.48;33.70;100333.53;2165630;40;115980;-55
2021/05/06 11:06:40;;;;;;;;;;;;;;;21.45;33.65;100333.34;2160259;40;115835;-56